Time;durP1;ratioP1;P1;durP2;ratioP2;P2;SDS_P1;SDS_P2;PMS_P1;PMS_P2;Temp;Humidity;BMP_temperature;BMP_pressure;BME280_temperature;BME280_humidity;BME280_pressure;Samples;Min_cycle;Max_cycle;Signal;HPM_P1;HPM_P2
2024/02/16 00:00:34;;;;;;;6.70;3.25;;;10.80;99.90;;;;;;4926973;29;20408;-84
2024/02/16 00:03:00;;;;;;;11.82;3.22;;;11.00;99.90;;;;;;4937491;29;20080;-84
2024/02/16 00:05:27;;;;;;;9.70;3.67;;;10.80;99.90;;;;;;4938045;29;20074;-84
2024/02/16 00:07:53;;;;;;;7.47;3.38;;;10.80;99.90;;;;;;4937469;29;20075;-85
2024/02/16 00:10:21;;;;;;;6.45;3.10;;;11.00;99.90;;;;;;4931666;29;20080;-84
2024/02/16 00:12:48;;;;;;;7.43;3.30;;;10.80;99.90;;;;;;4936748;29;20040;-85
2024/02/16 00:15:14;;;;;;;7.38;3.50;;;10.80;99.90;;;;;;4938339;29;20390;-84
2024/02/16 00:17:41;;;;;;;9.30;3.35;;;10.90;99.90;;;;;;4939430;29;20040;-85
2024/02/16 00:20:08;;;;;;;9.35;3.78;;;10.80;99.90;;;;;;4946068;29;20035;-85
2024/02/16 00:22:35;;;;;;;10.45;3.58;;;10.80;99.90;;;;;;4934701;29;20588;-85
2024/02/16 00:25:01;;;;;;;9.40;3.42;;;10.80;99.90;;;;;;4937020;29;20051;-85
2024/02/16 00:27:28;;;;;;;7.20;3.17;;;10.80;99.90;;;;;;4937311;29;20051;-85
2024/02/16 00:29:55;;;;;;;8.30;2.97;;;10.80;99.90;;;;;;4937426;29;20060;-85
2024/02/16 00:32:24;;;;;;;6.35;3.13;;;10.80;99.90;;;;;;4935770;29;20048;-85
2024/02/16 00:34:53;;;;;;;10.65;3.47;;;10.80;99.90;;;;;;4958117;29;20452;-85
2024/02/16 00:37:21;;;;;;;9.60;3.42;;;10.90;99.90;;;;;;4941082;29;20050;-85
2024/02/16 00:39:47;;;;;;;9.88;3.70;;;10.70;99.90;;;;;;4937045;29;20039;-85
2024/02/16 00:42:14;;;;;;;9.52;3.70;;;10.80;99.90;;;;;;4936304;29;20048;-84
2024/02/16 00:44:41;;;;;;;8.13;3.30;;;10.80;99.90;;;;;;4952592;29;20115;-85
2024/02/16 00:47:10;;;;;;;7.97;3.58;;;10.70;99.90;;;;;;4941639;29;20074;-85
2024/02/16 00:49:36;;;;;;;6.07;3.20;;;10.70;99.90;;;;;;4935811;29;20040;-84
2024/02/16 00:52:04;;;;;;;5.22;3.13;;;10.70;99.90;;;;;;4936946;29;20138;-84
2024/02/16 00:54:31;;;;;;;5.13;2.90;;;10.70;99.90;;;;;;4921440;29;20051;-85
2024/02/16 00:57:02;;;;;;;7.93;3.58;;;10.70;99.90;;;;;;4936237;29;20040;-85
2024/02/16 00:59:29;;;;;;;6.13;3.50;;;10.70;99.90;;;;;;4917815;29;20099;-85
2024/02/16 01:01:56;;;;;;;8.57;3.30;;;10.80;99.90;;;;;;4950328;29;20100;-85
2024/02/16 01:04:23;;;;;;;6.85;3.25;;;10.60;99.90;;;;;;4952367;29;20039;-85
2024/02/16 01:06:49;;;;;;;7.35;3.05;;;10.60;99.90;;;;;;4936638;29;20043;-84
2024/02/16 01:09:16;;;;;;;8.45;3.78;;;10.60;99.90;;;;;;4928434;29;20036;-85
2024/02/16 01:11:42;;;;;;;8.50;3.40;;;10.60;99.90;;;;;;4932597;29;20039;-84
2024/02/16 01:14:09;;;;;;;6.47;3.22;;;10.60;99.90;;;;;;4926288;29;20651;-85
2024/02/16 01:16:36;;;;;;;6.13;3.30;;;10.50;99.90;;;;;;4948570;29;20044;-85
2024/02/16 01:19:02;;;;;;;12.85;3.70;;;10.50;99.90;;;;;;4950242;29;20485;-85
2024/02/16 01:21:29;;;;;;;6.57;3.35;;;10.80;99.90;;;;;;4928509;29;20040;-85
2024/02/16 01:23:59;;;;;;;8.85;3.28;;;10.50;99.90;;;;;;4936042;29;20047;-85
2024/02/16 01:26:26;;;;;;;9.30;3.50;;;10.50;99.90;;;;;;4932034;29;20082;-84
2024/02/16 01:28:52;;;;;;;7.68;3.55;;;10.40;99.90;;;;;;4942639;29;20075;-84
2024/02/16 01:31:19;;;;;;;7.53;3.25;;;10.40;99.90;;;;;;4922179;29;20052;-85
2024/02/16 01:33:46;;;;;;;6.35;3.30;;;10.40;99.90;;;;;;4936536;29;20422;-85
2024/02/16 01:36:12;;;;;;;7.13;3.40;;;10.40;99.90;;;;;;4948726;29;20048;-84
2024/02/16 01:38:39;;;;;;;8.77;3.40;;;10.30;99.90;;;;;;4945559;29;20028;-85
2024/02/16 01:41:07;;;;;;;8.00;3.33;;;10.30;99.90;;;;;;4936624;29;20099;-85
2024/02/16 01:43:34;;;;;;;6.28;3.28;;;10.50;99.90;;;;;;4936313;29;20039;-85
2024/02/16 01:46:01;;;;;;;9.65;3.33;;;10.30;99.90;;;;;;4954477;29;20480;-85
2024/02/16 01:48:28;;;;;;;9.82;3.58;;;10.60;99.90;;;;;;4931403;29;20037;-85
2024/02/16 01:50:55;;;;;;;6.85;3.17;;;10.30;99.90;;;;;;4942625;29;20560;-85
2024/02/16 01:53:23;;;;;;;7.13;2.67;;;10.40;99.90;;;;;;4939864;29;20039;-85
2024/02/16 01:55:50;;;;;;;7.65;3.33;;;10.30;99.90;;;;;;4941160;29;20051;-84
2024/02/16 01:58:16;;;;;;;8.73;3.15;;;10.30;99.90;;;;;;4924617;29;20044;-84
2024/02/16 02:00:43;;;;;;;8.57;3.10;;;10.20;99.90;;;;;;4955635;29;20035;-84
2024/02/16 02:03:10;;;;;;;10.15;2.90;;;10.20;99.90;;;;;;4939697;29;20035;-84
2024/02/16 02:05:46;;;;;;;6.15;2.97;;;10.30;99.90;;;;;;4939683;29;20086;-85
2024/02/16 02:08:14;;;;;;;6.57;3.10;;;10.20;99.90;;;;;;4936538;29;20043;-84
2024/02/16 02:10:41;;;;;;;7.90;2.97;;;10.20;99.90;;;;;;4927363;29;20044;-85
2024/02/16 02:13:08;;;;;;;7.63;2.72;;;10.80;99.90;;;;;;4955026;29;20052;-84
2024/02/16 02:15:34;;;;;;;10.50;2.95;;;10.20;99.90;;;;;;4952322;29;20048;-85
2024/02/16 02:18:01;;;;;;;9.10;3.00;;;10.50;99.90;;;;;;4954147;29;20055;-85
2024/02/16 02:20:28;;;;;;;6.18;2.70;;;10.10;99.90;;;;;;4928294;29;20031;-85
2024/02/16 02:22:54;;;;;;;9.60;3.00;;;10.20;99.90;;;;;;4955222;29;20114;-84
2024/02/16 02:25:21;;;;;;;6.70;2.70;;;10.10;99.90;;;;;;4955159;29;20036;-84
2024/02/16 02:27:48;;;;;;;5.95;2.92;;;10.10;99.90;;;;;;4938308;29;20046;-84
2024/02/16 02:30:16;;;;;;;5.55;2.90;;;10.10;99.90;;;;;;4954086;29;20768;-84
2024/02/16 02:32:43;;;;;;;8.90;3.00;;;10.10;99.90;;;;;;4939379;29;20047;-85
2024/02/16 02:35:11;;;;;;;8.02;2.63;;;10.20;99.90;;;;;;4954988;29;20040;-85
2024/02/16 02:37:38;;;;;;;6.55;3.05;;;10.10;99.90;;;;;;4937161;29;20051;-84
2024/02/16 02:40:08;;;;;;;10.38;3.35;;;10.10;99.90;;;;;;4935777;29;20051;-85
2024/02/16 02:42:35;;;;;;;8.18;3.25;;;10.10;99.90;;;;;;4925531;29;20082;-84
2024/02/16 02:45:03;;;;;;;7.70;3.00;;;10.10;99.90;;;;;;4939331;29;20432;-85
2024/02/16 02:47:29;;;;;;;6.10;2.88;;;10.10;99.90;;;;;;4925567;29;20498;-85
2024/02/16 02:49:56;;;;;;;6.57;2.80;;;10.00;99.90;;;;;;4925675;29;20044;-85
2024/02/16 02:52:23;;;;;;;7.65;3.30;;;10.00;99.90;;;;;;4951325;29;20051;-84
2024/02/16 02:54:49;;;;;;;6.63;2.70;;;10.00;99.90;;;;;;4951537;29;20083;-85
2024/02/16 02:57:16;;;;;;;7.85;3.17;;;10.00;99.90;;;;;;4932244;29;20040;-85
2024/02/16 02:59:42;;;;;;;9.50;3.20;;;10.00;99.90;;;;;;4954679;29;20485;-85
2024/02/16 03:02:09;;;;;;;7.68;3.00;;;10.00;99.90;;;;;;4938843;29;20070;-84
2024/02/16 03:04:36;;;;;;;5.10;2.78;;;10.00;99.90;;;;;;4939100;29;20075;-84
2024/02/16 03:07:02;;;;;;;8.20;2.65;;;10.00;99.90;;;;;;4946186;29;20501;-85
2024/02/16 03:09:29;;;;;;;5.68;3.08;;;10.00;99.90;;;;;;4951362;29;20047;-84
2024/02/16 03:11:55;;;;;;;6.35;3.10;;;9.90;99.90;;;;;;4932312;29;20095;-85
2024/02/16 03:14:22;;;;;;;5.50;3.15;;;10.00;99.90;;;;;;4930225;29;20130;-85
2024/02/16 03:16:49;;;;;;;7.22;3.03;;;9.90;99.90;;;;;;4941170;29;20048;-85
2024/02/16 03:19:16;;;;;;;7.25;2.90;;;9.90;99.90;;;;;;4919704;29;20123;-85
2024/02/16 03:21:43;;;;;;;6.53;2.78;;;9.90;99.90;;;;;;4938735;29;20051;-85
2024/02/16 03:24:10;;;;;;;6.65;3.03;;;9.90;99.90;;;;;;4953990;29;20044;-84
2024/02/16 03:26:37;;;;;;;7.20;3.17;;;9.90;99.90;;;;;;4935616;29;20417;-85
2024/02/16 03:29:03;;;;;;;6.95;3.20;;;9.80;99.90;;;;;;4932102;29;20047;-84
2024/02/16 03:31:30;;;;;;;10.25;2.60;;;9.80;99.90;;;;;;4931802;29;20048;-84
2024/02/16 03:33:57;;;;;;;6.28;2.88;;;10.00;99.90;;;;;;4931439;29;20095;-85
2024/02/16 03:36:24;;;;;;;9.75;2.90;;;9.80;99.90;;;;;;4918982;29;20051;-84
2024/02/16 03:38:51;;;;;;;7.70;3.15;;;9.80;99.90;;;;;;4919213;29;20417;-85
2024/02/16 03:41:19;;;;;;;6.38;3.08;;;9.70;99.90;;;;;;4927339;29;20095;-85
2024/02/16 03:43:46;;;;;;;13.20;3.35;;;9.90;99.90;;;;;;4954256;29;20056;-85
2024/02/16 03:46:13;;;;;;;6.30;3.25;;;10.10;99.90;;;;;;4934616;29;20052;-85
2024/02/16 03:48:40;;;;;;;5.68;2.30;;;9.70;99.90;;;;;;4953899;29;20036;-85
2024/02/16 03:51:06;;;;;;;5.47;3.10;;;9.90;99.90;;;;;;4937324;29;20031;-84
2024/02/16 03:53:34;;;;;;;6.13;3.00;;;9.70;99.90;;;;;;4953086;29;20497;-84
2024/02/16 03:56:00;;;;;;;8.05;3.30;;;9.70;99.90;;;;;;4934400;29;20051;-85
2024/02/16 03:58:27;;;;;;;8.60;3.10;;;9.70;99.90;;;;;;4938498;29;20449;-84
2024/02/16 04:00:53;;;;;;;7.95;3.10;;;9.70;99.90;;;;;;4937509;29;20043;-84
2024/02/16 04:03:20;;;;;;;8.23;3.08;;;10.10;99.90;;;;;;4937231;29;20040;-84
2024/02/16 04:05:47;;;;;;;7.53;3.55;;;9.70;99.90;;;;;;4925108;29;20051;-84
2024/02/16 04:08:13;;;;;;;11.77;3.10;;;9.70;99.90;;;;;;4936906;29;20259;-84
2024/02/16 04:10:40;;;;;;;5.65;2.90;;;9.60;99.90;;;;;;4937270;29;20055;-84
2024/02/16 04:13:07;;;;;;;6.57;2.83;;;9.60;99.90;;;;;;4937511;29;20047;-84
2024/02/16 04:15:33;;;;;;;8.32;3.83;;;9.60;99.90;;;;;;4937661;29;20040;-85
2024/02/16 04:18:00;;;;;;;6.07;3.17;;;9.80;99.90;;;;;;4924669;29;20060;-84
2024/02/16 04:20:27;;;;;;;9.82;3.35;;;9.60;99.90;;;;;;4937365;29;20122;-84
2024/02/16 04:22:53;;;;;;;8.82;3.25;;;9.60;99.90;;;;;;4960655;29;20043;-84
2024/02/16 04:25:20;;;;;;;6.47;3.20;;;9.60;99.90;;;;;;4929638;29;20044;-84
2024/02/16 04:27:47;;;;;;;5.00;2.92;;;9.60;99.90;;;;;;4948295;29;20048;-85
2024/02/16 04:30:13;;;;;;;10.52;3.35;;;9.60;99.90;;;;;;4936880;29;20056;-84
2024/02/16 04:32:40;;;;;;;6.43;2.92;;;9.70;99.90;;;;;;4936825;29;20048;-84
2024/02/16 04:35:11;;;;;;;6.75;3.30;;;9.60;99.90;;;;;;4953108;29;20048;-84
2024/02/16 04:37:39;;;;;;;6.95;3.15;;;9.50;99.90;;;;;;4947740;29;20088;-84
2024/02/16 04:40:07;;;;;;;8.05;3.00;;;9.90;99.90;;;;;;4929326;29;20075;-84
2024/02/16 04:42:34;;;;;;;7.72;3.60;;;9.50;99.90;;;;;;4944140;29;20472;-84
2024/02/16 04:45:01;;;;;;;5.72;2.80;;;9.50;99.90;;;;;;4920398;29;20039;-85
2024/02/16 04:47:28;;;;;;;8.77;3.60;;;9.50;99.90;;;;;;4934709;29;20040;-84
2024/02/16 04:49:55;;;;;;;7.50;3.00;;;9.60;99.90;;;;;;4936976;29;20047;-85
2024/02/16 04:52:22;;;;;;;7.32;3.00;;;9.40;99.90;;;;;;4934906;29;20118;-85
2024/02/16 04:54:49;;;;;;;9.57;3.17;;;9.60;99.90;;;;;;4943979;29;20087;-84
2024/02/16 04:57:16;;;;;;;6.30;3.45;;;9.60;99.90;;;;;;4932337;29;20087;-84
2024/02/16 04:59:42;;;;;;;7.38;3.60;;;9.40;99.90;;;;;;4928431;29;20040;-85
2024/02/16 05:02:09;;;;;;;10.55;3.83;;;9.30;99.90;;;;;;4952891;29;20035;-85
2024/02/16 05:04:35;;;;;;;9.23;3.40;;;9.30;99.90;;;;;;4930449;29;20119;-84
2024/02/16 05:07:02;;;;;;;7.70;3.13;;;10.00;99.90;;;;;;4936311;29;20050;-84
2024/02/16 05:09:32;;;;;;;7.07;3.30;;;9.30;99.90;;;;;;4948750;29;20047;-84
2024/02/16 05:11:59;;;;;;;8.85;3.30;;;9.30;99.90;;;;;;4943448;29;20048;-85
2024/02/16 05:14:25;;;;;;;6.88;3.22;;;9.40;99.90;;;;;;4943711;29;20046;-84
2024/02/16 05:16:52;;;;;;;9.18;3.55;;;9.60;99.90;;;;;;4936407;29;20044;-85
2024/02/16 05:19:18;;;;;;;8.30;3.40;;;9.40;99.90;;;;;;4952063;29;20032;-84
2024/02/16 05:21:45;;;;;;;7.47;3.50;;;9.30;99.90;;;;;;4920069;29;20383;-84
2024/02/16 05:24:12;;;;;;;7.57;3.50;;;9.40;99.90;;;;;;4931535;29;20048;-84
2024/02/16 05:26:38;;;;;;;7.28;3.40;;;9.30;99.90;;;;;;4936655;29;20060;-85
2024/02/16 05:29:05;;;;;;;11.90;3.70;;;9.30;99.90;;;;;;4936733;29;20066;-84
2024/02/16 05:31:31;;;;;;;9.98;3.53;;;9.30;99.90;;;;;;4935799;29;20064;-84
2024/02/16 05:33:58;;;;;;;9.68;3.30;;;9.30;99.90;;;;;;4924797;29;20059;-84
2024/02/16 05:36:27;;;;;;;7.65;3.38;;;9.30;99.90;;;;;;4935902;29;20048;-84
2024/02/16 05:38:56;;;;;;;7.95;3.33;;;9.40;99.90;;;;;;4934078;29;20039;-85
2024/02/16 05:41:22;;;;;;;7.97;3.10;;;9.30;99.90;;;;;;4920899;29;20050;-85
2024/02/16 05:43:49;;;;;;;6.72;3.33;;;9.40;99.90;;;;;;4936132;29;20044;-85
2024/02/16 05:46:17;;;;;;;9.13;3.58;;;9.30;99.90;;;;;;4936250;29;20039;-85
2024/02/16 05:48:44;;;;;;;8.07;3.53;;;9.30;99.90;;;;;;4932876;29;20094;-85
2024/02/16 05:51:14;;;;;;;6.90;3.50;;;9.30;99.90;;;;;;4963590;29;20106;-84
2024/02/16 05:53:41;;;;;;;6.60;3.60;;;9.40;99.90;;;;;;4935854;29;20258;-85
2024/02/16 05:56:10;;;;;;;8.73;3.28;;;9.50;99.90;;;;;;4935568;29;20123;-85
2024/02/16 05:58:36;;;;;;;8.75;3.85;;;9.40;99.90;;;;;;4947109;29;20082;-85
2024/02/16 06:01:03;;;;;;;6.40;3.47;;;9.40;99.90;;;;;;4936061;29;20039;-85
2024/02/16 06:03:29;;;;;;;7.20;3.42;;;9.40;99.90;;;;;;4951722;29;20043;-84
2024/02/16 06:05:56;;;;;;;7.53;3.50;;;9.40;99.90;;;;;;4932768;29;20091;-84
2024/02/16 06:08:23;;;;;;;6.95;3.25;;;9.40;99.90;;;;;;4919015;29;20048;-85
2024/02/16 06:10:53;;;;;;;7.13;3.20;;;9.60;99.90;;;;;;4936214;29;20058;-84
2024/02/16 06:13:21;;;;;;;5.60;3.03;;;9.60;99.90;;;;;;4949193;29;20055;-85
2024/02/16 06:15:47;;;;;;;6.78;3.25;;;10.20;99.90;;;;;;4917239;29;20123;-85
2024/02/16 06:18:14;;;;;;;8.65;3.42;;;9.50;99.90;;;;;;4944028;29;20122;-85
2024/02/16 06:20:41;;;;;;;9.02;3.28;;;9.40;99.90;;;;;;4948169;29;20076;-84
2024/02/16 06:23:08;;;;;;;7.65;3.53;;;9.50;99.90;;;;;;4948955;29;20485;-84
2024/02/16 06:25:35;;;;;;;6.97;3.28;;;9.60;99.90;;;;;;4935683;29;20032;-84
2024/02/16 06:28:04;;;;;;;9.02;3.63;;;9.50;99.90;;;;;;4935135;29;20099;-84
2024/02/16 06:30:31;;;;;;;7.00;3.10;;;9.50;99.90;;;;;;4936030;29;20537;-85
2024/02/16 06:32:58;;;;;;;9.32;3.83;;;9.50;99.90;;;;;;4938118;29;20135;-85
2024/02/16 06:35:25;;;;;;;7.35;3.40;;;9.90;99.90;;;;;;4939748;29;20311;-84
2024/02/16 06:37:52;;;;;;;12.43;3.90;;;9.50;99.90;;;;;;4947269;29;20122;-85
2024/02/16 06:40:18;;;;;;;6.78;3.17;;;9.40;99.90;;;;;;4951773;29;20032;-85
2024/02/16 06:42:46;;;;;;;7.90;3.47;;;9.50;99.90;;;;;;4934066;29;20107;-84
2024/02/16 06:45:12;;;;;;;8.57;3.53;;;9.50;99.90;;;;;;4930344;29;20050;-85
2024/02/16 06:47:39;;;;;;;7.20;3.58;;;9.40;99.90;;;;;;4938619;29;20130;-84
2024/02/16 06:50:07;;;;;;;6.97;3.38;;;9.50;99.90;;;;;;4939076;29;20135;-84
2024/02/16 06:52:33;;;;;;;8.77;3.63;;;9.40;99.90;;;;;;4938242;29;20039;-84
2024/02/16 06:55:00;;;;;;;8.55;3.70;;;9.50;99.90;;;;;;4938968;29;20127;-85
2024/02/16 06:57:27;;;;;;;11.60;3.97;;;9.50;99.90;;;;;;4951474;29;20075;-84
2024/02/16 06:59:53;;;;;;;11.30;3.63;;;9.60;99.90;;;;;;4955126;29;20070;-85
2024/02/16 07:02:20;;;;;;;8.10;3.50;;;9.50;99.90;;;;;;4938866;29;20119;-84
2024/02/16 07:04:47;;;;;;;7.03;3.60;;;9.60;99.90;;;;;;4955040;29;20035;-84
2024/02/16 07:07:14;;;;;;;7.88;3.45;;;9.40;99.90;;;;;;4938764;29;20070;-84
2024/02/16 07:09:41;;;;;;;6.80;3.70;;;9.50;99.90;;;;;;4954661;29;20043;-85
2024/02/16 07:12:08;;;;;;;7.80;3.78;;;9.50;99.90;;;;;;4938110;29;20448;-85
2024/02/16 07:14:35;;;;;;;9.23;3.55;;;9.60;99.90;;;;;;4968366;29;20043;-85
2024/02/16 07:17:01;;;;;;;9.10;4.10;;;9.40;99.90;;;;;;4935573;29;20039;-84
2024/02/16 07:19:28;;;;;;;8.23;3.58;;;9.40;99.90;;;;;;4929093;29;20036;-84
2024/02/16 07:21:55;;;;;;;11.30;3.53;;;9.40;99.90;;;;;;4931249;29;20457;-84
2024/02/16 07:24:21;;;;;;;9.50;4.00;;;9.60;99.90;;;;;;4944586;29;20517;-85
2024/02/16 07:26:48;;;;;;;5.00;3.08;;;9.40;99.90;;;;;;4935345;29;20127;-85
2024/02/16 07:29:16;;;;;;;8.20;3.72;;;9.40;99.90;;;;;;4952339;29;20075;-84
2024/02/16 07:31:44;;;;;;;12.80;3.45;;;9.40;99.90;;;;;;4926886;29;20493;-84
2024/02/16 07:34:13;;;;;;;6.90;3.50;;;9.50;99.90;;;;;;4938257;29;20052;-84
2024/02/16 07:36:40;;;;;;;7.47;3.67;;;9.60;99.90;;;;;;4954087;29;20086;-85
2024/02/16 07:39:07;;;;;;;8.82;3.60;;;9.50;99.90;;;;;;4950648;29;20079;-85
2024/02/16 07:41:34;;;;;;;12.50;3.78;;;10.00;99.90;;;;;;4944686;29;20052;-85
2024/02/16 07:44:00;;;;;;;11.95;3.75;;;9.90;99.90;;;;;;4946753;29;20042;-85
2024/02/16 07:46:27;;;;;;;9.00;3.90;;;9.70;99.90;;;;;;4934900;29;20048;-85
2024/02/16 07:48:54;;;;;;;7.82;3.92;;;9.90;99.90;;;;;;4947609;29;20044;-84
2024/02/16 07:51:21;;;;;;;8.35;4.00;;;10.00;99.90;;;;;;4938302;29;20202;-85
2024/02/16 07:53:48;;;;;;;9.20;3.80;;;10.20;99.90;;;;;;4943189;29;20115;-85
2024/02/16 07:56:14;;;;;;;6.63;3.72;;;10.00;99.90;;;;;;4938466;29;20054;-84
2024/02/16 07:58:43;;;;;;;10.15;4.50;;;10.20;99.90;;;;;;4938053;29;20054;-85
2024/02/16 08:01:15;;;;;;;8.02;3.92;;;10.10;99.90;;;;;;4932194;29;20040;-84
2024/02/16 08:03:41;;;;;;;6.45;3.47;;;10.20;99.90;;;;;;4935392;29;20074;-85
2024/02/16 08:06:08;;;;;;;7.05;3.92;;;10.30;99.90;;;;;;4932188;29;20096;-84
2024/02/16 08:08:35;;;;;;;9.57;4.28;;;10.30;99.90;;;;;;4937693;29;20099;-85
2024/02/16 08:11:02;;;;;;;8.38;3.90;;;10.30;99.90;;;;;;4937898;29;20123;-84
2024/02/16 08:13:29;;;;;;;7.38;3.60;;;10.40;99.90;;;;;;4938020;29;20138;-84
2024/02/16 08:15:56;;;;;;;8.65;4.00;;;10.40;99.90;;;;;;4938124;29;20123;-84
2024/02/16 08:18:23;;;;;;;5.90;3.20;;;10.50;99.90;;;;;;4934416;29;20044;-84
2024/02/16 08:20:50;;;;;;;8.48;4.18;;;10.70;99.90;;;;;;4940869;29;20043;-85
2024/02/16 08:23:16;;;;;;;12.98;3.90;;;10.60;99.90;;;;;;4934448;29;20472;-85
2024/02/16 08:25:43;;;;;;;7.43;3.55;;;10.60;99.90;;;;;;4926991;29;20410;-85
2024/02/16 08:28:10;;;;;;;8.25;3.55;;;10.60;99.90;;;;;;4946909;29;20040;-85
2024/02/16 08:30:40;;;;;;;7.90;3.30;;;10.70;99.90;;;;;;4923880;29;20136;-85
2024/02/16 08:33:07;;;;;;;8.63;3.45;;;10.70;99.90;;;;;;4925200;29;20040;-84
2024/02/16 08:35:34;;;;;;;7.10;3.05;;;10.80;99.90;;;;;;4937250;29;20040;-85
2024/02/16 08:38:01;;;;;;;7.53;3.33;;;10.90;99.90;;;;;;4937142;29;20453;-85
2024/02/16 08:40:28;;;;;;;7.43;3.65;;;10.80;99.90;;;;;;4951431;29;20505;-85
2024/02/16 08:42:55;;;;;;;5.75;2.80;;;10.90;99.90;;;;;;4933835;29;20044;-85
2024/02/16 08:45:22;;;;;;;10.85;3.10;;;11.00;99.90;;;;;;4925878;29;20040;-85
2024/02/16 08:47:48;;;;;;;7.57;2.75;;;11.00;99.90;;;;;;4955248;29;20043;-84
2024/02/16 08:50:15;;;;;;;8.23;3.53;;;11.10;99.90;;;;;;4938792;29;20044;-85
2024/02/16 08:52:41;;;;;;;5.90;3.15;;;11.10;99.90;;;;;;4948673;29;20040;-85
2024/02/16 08:55:08;;;;;;;8.85;3.53;;;11.10;99.90;;;;;;4928618;29;20074;-85
2024/02/16 08:57:35;;;;;;;5.90;3.13;;;11.10;99.90;;;;;;4924584;29;20075;-85
2024/02/16 09:00:02;;;;;;;7.18;3.33;;;11.20;99.90;;;;;;4949536;29;20040;-85
2024/02/16 09:02:29;;;;;;;6.13;2.92;;;11.20;99.90;;;;;;4932514;29;20040;-85
2024/02/16 09:04:56;;;;;;;6.15;3.42;;;11.20;99.90;;;;;;4924897;29;20040;-85
2024/02/16 09:07:24;;;;;;;8.43;3.40;;;11.30;99.90;;;;;;4948585;29;20119;-85
2024/02/16 09:09:50;;;;;;;9.25;3.33;;;11.40;99.90;;;;;;4941574;29;20079;-85
2024/02/16 09:12:17;;;;;;;8.18;3.10;;;11.40;99.90;;;;;;4937185;29;20079;-85
2024/02/16 09:14:44;;;;;;;6.53;3.45;;;11.40;99.90;;;;;;4936978;29;20503;-85
2024/02/16 09:17:10;;;;;;;6.63;3.13;;;11.50;99.90;;;;;;4936763;29;20173;-85
2024/02/16 09:19:37;;;;;;;5.32;3.15;;;11.50;99.90;;;;;;4936536;29;20046;-85
2024/02/16 09:22:06;;;;;;;7.43;3.40;;;11.60;99.90;;;;;;4932414;29;20040;-85
2024/02/16 09:24:33;;;;;;;7.22;4.03;;;11.60;99.90;;;;;;4951972;29;20044;-85
2024/02/16 09:27:04;;;;;;;10.43;4.25;;;11.60;99.90;;;;;;4942535;29;20043;-85
2024/02/16 09:29:31;;;;;;;8.50;3.63;;;11.60;99.90;;;;;;4939566;29;20551;-84
2024/02/16 09:31:58;;;;;;;6.93;3.60;;;11.70;99.90;;;;;;4923223;29;20099;-85
2024/02/16 09:34:24;;;;;;;9.68;3.72;;;11.70;99.90;;;;;;4911036;29;20525;-85
2024/02/16 09:36:51;;;;;;;5.90;3.35;;;11.80;99.90;;;;;;4921465;29;20048;-85
2024/02/16 09:39:17;;;;;;;6.15;3.33;;;11.80;99.90;;;;;;4904853;29;20055;-85
2024/02/16 09:41:50;;;;;;;6.15;2.90;;;11.90;99.90;;;;;;4917705;29;20130;-85
2024/02/16 09:44:17;;;;;;;6.50;3.53;;;11.90;99.90;;;;;;4936210;29;20036;-85
2024/02/16 09:46:44;;;;;;;6.47;3.80;;;11.90;99.90;;;;;;4918331;29;20056;-85
2024/02/16 09:49:11;;;;;;;10.63;3.97;;;12.00;99.90;;;;;;4912032;29;20226;-85
2024/02/16 09:51:38;;;;;;;6.60;3.80;;;12.00;99.90;;;;;;4917516;29;20063;-85
2024/02/16 09:54:06;;;;;;;6.50;3.25;;;12.00;99.90;;;;;;4917725;29;20166;-85
2024/02/16 09:56:33;;;;;;;6.82;3.67;;;12.10;99.90;;;;;;4917706;29;20039;-85
2024/02/16 09:59:00;;;;;;;5.82;3.30;;;12.10;99.90;;;;;;4917430;29;20032;-85
2024/02/16 10:01:28;;;;;;;7.70;3.42;;;12.30;99.90;;;;;;4914604;29;20092;-85
2024/02/16 10:03:59;;;;;;;8.18;3.70;;;12.20;99.90;;;;;;4930669;29;20048;-84
2024/02/16 10:06:26;;;;;;;6.70;3.72;;;12.30;99.90;;;;;;4934326;29;20515;-85
2024/02/16 10:08:54;;;;;;;8.95;3.80;;;12.40;99.90;;;;;;4921592;29;20048;-85
2024/02/16 10:11:24;;;;;;;9.02;3.90;;;12.30;99.90;;;;;;4920804;29;20040;-85
2024/02/16 10:13:56;;;;;;;6.65;3.47;;;12.40;99.90;;;;;;4920875;29;20506;-85
2024/02/16 10:16:23;;;;;;;9.60;4.05;;;12.50;99.90;;;;;;4921192;29;20040;-85
2024/02/16 10:18:49;;;;;;;8.05;3.75;;;12.60;99.90;;;;;;4921177;29;20044;-85
2024/02/16 10:21:29;;;;;;;6.97;3.83;;;12.60;99.90;;;;;;4936522;29;20044;-85
2024/02/16 10:24:21;;;;;;;10.82;3.88;;;12.70;99.90;;;;;;4920633;29;20406;-85
2024/02/16 10:26:47;;;;;;;7.70;3.88;;;12.80;99.90;;;;;;4918929;29;20039;-85
2024/02/16 10:29:21;;;;;;;9.43;3.95;;;12.80;99.90;;;;;;4920122;29;20051;-85
2024/02/16 10:31:49;;;;;;;7.85;3.97;;;13.30;99.90;;;;;;4936033;29;20091;-85
2024/02/16 10:34:17;;;;;;;8.00;3.88;;;12.90;99.90;;;;;;4952260;29;20721;-85
2024/02/16 10:36:44;;;;;;;7.40;4.20;;;13.00;99.90;;;;;;4948907;29;20508;-85
2024/02/16 10:39:11;;;;;;;8.45;3.88;;;13.00;99.90;;;;;;4923349;29;20115;-85
2024/02/16 10:41:39;;;;;;;7.72;3.97;;;13.00;99.90;;;;;;4952108;29;20068;-85
2024/02/16 10:44:06;;;;;;;8.32;3.72;;;13.00;99.90;;;;;;4946148;29;20042;-85
2024/02/16 10:46:33;;;;;;;10.23;4.25;;;13.00;99.90;;;;;;4954715;29;20035;-85
2024/02/16 10:49:01;;;;;;;6.75;4.10;;;13.10;99.90;;;;;;4954150;29;20043;-85
2024/02/16 10:51:42;;;;;;;9.60;3.90;;;13.10;99.90;;;;;;4927572;29;20051;-85
2024/02/16 10:54:10;;;;;;;8.48;3.90;;;13.10;99.90;;;;;;4951741;29;20043;-85
2024/02/16 10:56:39;;;;;;;15.73;5.15;;;13.20;99.90;;;;;;4951631;29;20040;-85
2024/02/16 10:59:09;;;;;;;6.25;3.53;;;13.20;99.90;;;;;;4937185;29;20044;-85
2024/02/16 11:01:44;;;;;;;7.38;4.30;;;13.30;99.90;;;;;;4946695;29;20122;-85
2024/02/16 11:04:18;;;;;;;7.38;4.13;;;13.30;99.90;;;;;;4939199;29;20043;-85
2024/02/16 11:06:49;;;;;;;7.40;4.22;;;13.30;99.90;;;;;;4954773;29;20055;-85
2024/02/16 11:09:35;;;;;;;7.15;4.55;;;13.30;99.90;;;;;;4939504;29;20039;-85
2024/02/16 11:12:04;;;;;;;9.60;4.28;;;13.30;99.90;;;;;;4938903;29;20084;-84
2024/02/16 11:14:38;;;;;;;7.93;4.30;;;13.30;99.90;;;;;;4938917;29;20043;-85
2024/02/16 11:17:24;;;;;;;8.10;4.68;;;13.30;99.90;;;;;;4950706;29;20056;-85
2024/02/16 11:19:54;;;;;;;8.07;4.93;;;13.20;99.90;;;;;;4938550;29;20044;-85
2024/02/16 11:22:21;;;;;;;7.38;5.00;;;13.30;99.90;;;;;;4942195;29;20121;-85
2024/02/16 11:24:53;;;;;;;9.07;4.80;;;13.20;99.90;;;;;;4938254;29;20488;-85
2024/02/16 11:27:21;;;;;;;7.15;4.72;;;13.10;99.90;;;;;;4939152;29;20057;-85
2024/02/16 11:29:48;;;;;;;10.20;5.10;;;13.10;99.90;;;;;;4926045;29;20466;-85
2024/02/16 11:32:15;;;;;;;10.75;5.25;;;12.90;99.90;;;;;;4938657;29;20055;-85
2024/02/16 11:34:41;;;;;;;9.77;5.63;;;12.90;99.90;;;;;;4938769;29;20401;-85
2024/02/16 11:37:08;;;;;;;10.45;5.20;;;12.90;99.90;;;;;;4950946;29;20051;-85
2024/02/16 11:39:37;;;;;;;11.10;5.55;;;12.80;99.90;;;;;;4926804;29;20120;-85
2024/02/16 11:42:11;;;;;;;8.00;5.40;;;12.70;99.90;;;;;;4938401;29;20528;-85
2024/02/16 11:44:42;;;;;;;13.02;6.38;;;12.70;99.90;;;;;;4934570;29;20044;-85
2024/02/16 11:47:12;;;;;;;12.48;5.78;;;12.70;99.90;;;;;;4950403;29;20078;-85
2024/02/16 11:49:39;;;;;;;15.02;6.07;;;12.80;99.90;;;;;;4938271;29;20047;-85
2024/02/16 11:52:07;;;;;;;11.50;5.95;;;12.70;99.90;;;;;;4938117;29;20716;-85
2024/02/16 11:54:36;;;;;;;10.07;6.07;;;12.70;99.90;;;;;;4936123;29;20171;-85
2024/02/16 11:57:04;;;;;;;15.48;7.05;;;12.60;99.90;;;;;;4953717;29;20416;-85
2024/02/16 11:59:31;;;;;;;11.00;7.13;;;12.60;99.90;;;;;;4937433;29;20035;-85
2024/02/16 12:01:58;;;;;;;14.85;7.28;;;12.60;99.90;;;;;;4953719;29;20036;-85
2024/02/16 12:04:30;;;;;;;12.65;8.00;;;12.60;99.90;;;;;;4937688;28;20094;-85
2024/02/16 12:06:58;;;;;;;13.45;7.68;;;12.40;99.90;;;;;;4937908;29;20043;-85
2024/02/16 12:09:25;;;;;;;17.42;8.13;;;12.40;99.90;;;;;;4938079;29;20106;-85
2024/02/16 12:11:55;;;;;;;14.85;9.50;;;12.30;99.90;;;;;;4938045;29;20035;-85
2024/02/16 12:14:22;;;;;;;20.58;10.32;;;12.20;99.90;;;;;;4937924;29;20513;-85
2024/02/16 12:16:56;;;;;;;19.38;9.52;;;12.00;99.90;;;;;;4926806;29;20047;-85
2024/02/16 12:19:23;;;;;;;18.90;9.20;;;12.00;99.90;;;;;;4945660;29;20048;-85
2024/02/16 12:21:57;;;;;;;15.02;8.93;;;11.90;99.90;;;;;;4946975;29;20501;-85
2024/02/16 12:24:24;;;;;;;15.05;8.45;;;11.70;99.90;;;;;;4924128;29;20055;-85
2024/02/16 12:26:51;;;;;;;15.80;8.32;;;11.70;99.90;;;;;;4946840;29;20039;-85
2024/02/16 12:29:17;;;;;;;14.55;7.90;;;11.70;99.90;;;;;;4936950;29;20479;-85
2024/02/16 12:31:47;;;;;;;12.50;7.22;;;11.70;99.90;;;;;;4929807;29;20079;-85
2024/02/16 12:34:14;;;;;;;12.07;7.05;;;11.70;99.90;;;;;;4937706;29;20048;-85
2024/02/16 12:36:41;;;;;;;13.55;6.85;;;11.70;99.90;;;;;;4950385;29;20051;-85
2024/02/16 12:39:14;;;;;;;13.38;6.70;;;11.60;99.90;;;;;;4949977;29;20036;-85
2024/02/16 12:41:42;;;;;;;16.10;7.22;;;11.60;99.90;;;;;;4933986;29;20040;-85
2024/02/16 12:44:09;;;;;;;16.25;7.90;;;12.00;99.90;;;;;;4944816;29;20047;-85
2024/02/16 12:46:36;;;;;;;15.18;6.82;;;11.50;99.90;;;;;;4922688;29;20040;-85
2024/02/16 12:49:03;;;;;;;13.15;6.45;;;11.50;99.90;;;;;;4950646;29;20036;-85